sensor_id;sensor_type;location;lat;lon;timestamp;P1;durP1;ratioP1;P2;durP2;ratioP2
59314;SDS011;46521;50.160;20.802;2023-01-13T00:10:03;13.00;;;7.60;;
59314;SDS011;46521;50.160;20.802;2023-01-13T00:20:06;12.90;;;7.40;;
59314;SDS011;46521;50.160;20.802;2023-01-13T00:30:08;11.80;;;6.10;;
59314;SDS011;46521;50.160;20.802;2023-01-13T00:40:10;11.80;;;5.60;;
59314;SDS011;46521;50.160;20.802;2023-01-13T00:50:12;11.20;;;5.70;;
59314;SDS011;46521;50.160;20.802;2023-01-13T01:00:13;11.40;;;5.50;;
59314;SDS011;46521;50.160;20.802;2023-01-13T01:10:15;10.75;;;5.40;;
59314;SDS011;46521;50.160;20.802;2023-01-13T01:20:17;12.10;;;6.10;;
59314;SDS011;46521;50.160;20.802;2023-01-13T01:30:18;10.93;;;5.20;;
59314;SDS011;46521;50.160;20.802;2023-01-13T01:40:20;10.30;;;4.80;;
59314;SDS011;46521;50.160;20.802;2023-01-13T01:50:21;10.40;;;5.60;;
59314;SDS011;46521;50.160;20.802;2023-01-13T02:00:24;8.45;;;4.40;;
59314;SDS011;46521;50.160;20.802;2023-01-13T02:10:28;11.25;;;4.55;;
59314;SDS011;46521;50.160;20.802;2023-01-13T02:31:08;9.20;;;4.20;;
59314;SDS011;46521;50.160;20.802;2023-01-13T02:41:38;10.40;;;4.10;;
59314;SDS011;46521;50.160;20.802;2023-01-13T02:52:14;9.00;;;4.00;;
59314;SDS011;46521;50.160;20.802;2023-01-13T03:02:32;9.90;;;4.35;;
59314;SDS011;46521;50.160;20.802;2023-01-13T03:12:43;10.47;;;4.63;;
59314;SDS011;46521;50.160;20.802;2023-01-13T03:33:07;8.90;;;3.90;;
59314;SDS011;46521;50.160;20.802;2023-01-13T03:43:22;7.70;;;3.80;;
59314;SDS011;46521;50.160;20.802;2023-01-13T03:53:49;7.97;;;3.60;;
59314;SDS011;46521;50.160;20.802;2023-01-13T04:04:00;9.40;;;4.20;;
59314;SDS011;46521;50.160;20.802;2023-01-13T04:14:06;8.60;;;3.80;;
59314;SDS011;46521;50.160;20.802;2023-01-13T04:24:10;9.00;;;4.50;;
59314;SDS011;46521;50.160;20.802;2023-01-13T04:34:12;9.90;;;4.85;;
59314;SDS011;46521;50.160;20.802;2023-01-13T04:44:13;16.75;;;8.50;;
59314;SDS011;46521;50.160;20.802;2023-01-13T04:54:15;33.00;;;14.70;;
59314;SDS011;46521;50.160;20.802;2023-01-13T05:04:16;37.35;;;17.95;;
59314;SDS011;46521;50.160;20.802;2023-01-13T05:14:18;21.95;;;11.20;;
59314;SDS011;46521;50.160;20.802;2023-01-13T05:24:38;9.35;;;4.90;;
59314;SDS011;46521;50.160;20.802;2023-01-13T05:34:58;12.10;;;6.40;;
59314;SDS011;46521;50.160;20.802;2023-01-13T05:44:59;9.20;;;4.50;;
59314;SDS011;46521;50.160;20.802;2023-01-13T05:55:01;9.80;;;4.85;;
59314;SDS011;46521;50.160;20.802;2023-01-13T06:05:02;8.90;;;4.10;;
59314;SDS011;46521;50.160;20.802;2023-01-13T06:15:04;11.00;;;5.90;;
59314;SDS011;46521;50.160;20.802;2023-01-13T06:25:07;10.50;;;5.30;;
59314;SDS011;46521;50.160;20.802;2023-01-13T06:35:14;13.75;;;6.65;;
59314;SDS011;46521;50.160;20.802;2023-01-13T06:55:22;27.13;;;14.30;;
59314;SDS011;46521;50.160;20.802;2023-01-13T07:05:24;19.55;;;9.40;;
59314;SDS011;46521;50.160;20.802;2023-01-13T07:15:25;21.10;;;10.50;;
59314;SDS011;46521;50.160;20.802;2023-01-13T07:25:27;24.95;;;11.30;;
59314;SDS011;46521;50.160;20.802;2023-01-13T07:35:28;16.65;;;9.45;;
59314;SDS011;46521;50.160;20.802;2023-01-13T07:45:30;14.80;;;7.45;;
59314;SDS011;46521;50.160;20.802;2023-01-13T07:55:31;13.20;;;7.20;;
59314;SDS011;46521;50.160;20.802;2023-01-13T08:05:35;13.15;;;6.55;;
59314;SDS011;46521;50.160;20.802;2023-01-13T08:15:37;12.90;;;7.40;;
59314;SDS011;46521;50.160;20.802;2023-01-13T08:25:39;25.25;;;12.15;;
59314;SDS011;46521;50.160;20.802;2023-01-13T08:35:40;16.75;;;7.60;;
59314;SDS011;46521;50.160;20.802;2023-01-13T08:45:42;12.10;;;6.60;;
59314;SDS011;46521;50.160;20.802;2023-01-13T08:55:44;11.30;;;5.20;;
59314;SDS011;46521;50.160;20.802;2023-01-13T09:05:45;12.25;;;5.80;;
59314;SDS011;46521;50.160;20.802;2023-01-13T09:15:47;16.10;;;7.70;;
59314;SDS011;46521;50.160;20.802;2023-01-13T09:25:48;12.30;;;6.25;;
59314;SDS011;46521;50.160;20.802;2023-01-13T09:35:56;10.40;;;5.80;;
59314;SDS011;46521;50.160;20.802;2023-01-13T09:46:00;11.20;;;5.45;;
59314;SDS011;46521;50.160;20.802;2023-01-13T09:56:32;15.55;;;7.00;;
59314;SDS011;46521;50.160;20.802;2023-01-13T10:06:35;17.57;;;8.73;;
59314;SDS011;46521;50.160;20.802;2023-01-13T10:27:02;13.20;;;6.20;;
59314;SDS011;46521;50.160;20.802;2023-01-13T10:37:09;12.90;;;7.10;;
59314;SDS011;46521;50.160;20.802;2023-01-13T10:47:30;11.80;;;6.20;;
59314;SDS011;46521;50.160;20.802;2023-01-13T10:57:36;11.80;;;6.15;;
59314;SDS011;46521;50.160;20.802;2023-01-13T11:17:47;11.87;;;5.70;;
59314;SDS011;46521;50.160;20.802;2023-01-13T11:27:57;13.15;;;6.55;;
59314;SDS011;46521;50.160;20.802;2023-01-13T11:48:28;11.70;;;5.80;;
59314;SDS011;46521;50.160;20.802;2023-01-13T12:29:19;11.87;;;5.97;;
59314;SDS011;46521;50.160;20.802;2023-01-13T12:39:49;11.20;;;5.30;;
59314;SDS011;46521;50.160;20.802;2023-01-13T13:21:07;12.00;;;5.50;;
59314;SDS011;46521;50.160;20.802;2023-01-13T13:31:33;11.80;;;5.95;;
59314;SDS011;46521;50.160;20.802;2023-01-13T13:41:46;11.85;;;5.45;;
59314;SDS011;46521;50.160;20.802;2023-01-13T14:02:30;41.23;;;23.73;;
59314;SDS011;46521;50.160;20.802;2023-01-13T14:12:36;30.53;;;25.70;;
59314;SDS011;46521;50.160;20.802;2023-01-13T14:22:38;35.70;;;22.30;;
59314;SDS011;46521;50.160;20.802;2023-01-13T14:32:40;28.00;;;17.70;;
59314;SDS011;46521;50.160;20.802;2023-01-13T14:42:42;27.90;;;17.00;;
59314;SDS011;46521;50.160;20.802;2023-01-13T14:52:50;51.75;;;27.00;;
59314;SDS011;46521;50.160;20.802;2023-01-13T15:12:59;29.03;;;14.37;;
59314;SDS011;46521;50.160;20.802;2023-01-13T15:23:02;23.10;;;12.20;;
59314;SDS011;46521;50.160;20.802;2023-01-13T15:33:04;22.70;;;11.40;;
59314;SDS011;46521;50.160;20.802;2023-01-13T15:43:09;48.03;;;24.73;;
59314;SDS011;46521;50.160;20.802;2023-01-13T15:53:34;26.75;;;12.30;;
59314;SDS011;46521;50.160;20.802;2023-01-13T16:03:36;34.70;;;14.85;;
59314;SDS011;46521;50.160;20.802;2023-01-13T16:13:38;25.68;;;13.93;;
59314;SDS011;46521;50.160;20.802;2023-01-13T16:23:40;33.80;;;19.60;;
59314;SDS011;46521;50.160;20.802;2023-01-13T16:33:41;35.70;;;15.95;;
59314;SDS011;46521;50.160;20.802;2023-01-13T16:43:43;40.57;;;19.20;;
59314;SDS011;46521;50.160;20.802;2023-01-13T16:53:45;28.63;;;20.10;;
59314;SDS011;46521;50.160;20.802;2023-01-13T17:03:47;62.60;;;30.87;;
59314;SDS011;46521;50.160;20.802;2023-01-13T17:13:48;28.90;;;17.40;;
59314;SDS011;46521;50.160;20.802;2023-01-13T17:23:50;32.50;;;18.40;;
59314;SDS011;46521;50.160;20.802;2023-01-13T17:33:51;48.53;;;28.30;;
59314;SDS011;46521;50.160;20.802;2023-01-13T17:43:53;50.73;;;29.83;;
59314;SDS011;46521;50.160;20.802;2023-01-13T17:53:55;40.45;;;21.60;;
59314;SDS011;46521;50.160;20.802;2023-01-13T18:03:56;42.80;;;20.60;;
59314;SDS011;46521;50.160;20.802;2023-01-13T18:13:58;82.90;;;40.20;;
59314;SDS011;46521;50.160;20.802;2023-01-13T18:24:00;30.70;;;15.87;;
59314;SDS011;46521;50.160;20.802;2023-01-13T18:34:20;22.50;;;13.20;;
59314;SDS011;46521;50.160;20.802;2023-01-13T18:44:21;30.25;;;16.28;;
59314;SDS011;46521;50.160;20.802;2023-01-13T18:54:23;32.27;;;18.20;;
59314;SDS011;46521;50.160;20.802;2023-01-13T19:04:24;33.30;;;18.87;;
59314;SDS011;46521;50.160;20.802;2023-01-13T19:14:26;26.23;;;14.85;;
59314;SDS011;46521;50.160;20.802;2023-01-13T19:24:34;19.90;;;12.05;;
59314;SDS011;46521;50.160;20.802;2023-01-13T19:34:35;16.33;;;10.03;;
59314;SDS011;46521;50.160;20.802;2023-01-13T19:44:37;17.70;;;10.25;;
59314;SDS011;46521;50.160;20.802;2023-01-13T19:54:57;17.35;;;10.50;;
59314;SDS011;46521;50.160;20.802;2023-01-13T20:04:59;23.23;;;15.80;;
59314;SDS011;46521;50.160;20.802;2023-01-13T20:15:03;24.55;;;16.30;;
59314;SDS011;46521;50.160;20.802;2023-01-13T20:25:06;21.45;;;13.30;;
59314;SDS011;46521;50.160;20.802;2023-01-13T20:35:09;20.15;;;10.60;;
59314;SDS011;46521;50.160;20.802;2023-01-13T20:45:13;24.30;;;12.00;;
59314;SDS011;46521;50.160;20.802;2023-01-13T20:55:17;19.30;;;10.10;;
59314;SDS011;46521;50.160;20.802;2023-01-13T21:05:19;16.80;;;8.30;;
59314;SDS011;46521;50.160;20.802;2023-01-13T21:15:20;13.90;;;7.40;;
59314;SDS011;46521;50.160;20.802;2023-01-13T21:25:22;11.40;;;6.20;;
59314;SDS011;46521;50.160;20.802;2023-01-13T21:35:24;10.30;;;4.80;;
59314;SDS011;46521;50.160;20.802;2023-01-13T21:45:26;8.95;;;4.30;;
59314;SDS011;46521;50.160;20.802;2023-01-13T21:55:48;12.30;;;6.85;;
59314;SDS011;46521;50.160;20.802;2023-01-13T22:05:53;19.50;;;11.40;;
59314;SDS011;46521;50.160;20.802;2023-01-13T22:15:55;17.90;;;11.20;;
59314;SDS011;46521;50.160;20.802;2023-01-13T22:26:00;13.45;;;6.90;;
59314;SDS011;46521;50.160;20.802;2023-01-13T22:36:02;10.17;;;5.70;;
59314;SDS011;46521;50.160;20.802;2023-01-13T22:46:05;8.97;;;4.40;;
59314;SDS011;46521;50.160;20.802;2023-01-13T23:06:17;9.80;;;5.00;;
59314;SDS011;46521;50.160;20.802;2023-01-13T23:16:20;7.90;;;4.15;;
59314;SDS011;46521;50.160;20.802;2023-01-13T23:26:22;8.25;;;4.40;;
59314;SDS011;46521;50.160;20.802;2023-01-13T23:36:24;8.73;;;3.87;;
59314;SDS011;46521;50.160;20.802;2023-01-13T23:46:27;10.20;;;4.53;;
